Time;durP1;ratioP1;P1;durP2;ratioP2;P2;SDS_P1;SDS_P2;PMS_P1;PMS_P2;Temp;Humidity;BMP_temperature;BMP_pressure;BME280_temperature;BME280_humidity;BME280_pressure;Samples;Min_cycle;Max_cycle;Signal;HPM_P1;HPM_P2
2021/12/28 00:00:09;;;;;;;54.53;30.90;;;5.30;99.90;;;;;;5066681;28;20416;-56
2021/12/28 00:02:35;;;;;;;60.15;33.70;;;5.30;99.90;;;;;;5083552;28;20040;-54
2021/12/28 00:05:01;;;;;;;55.50;34.23;;;5.30;99.90;;;;;;5080238;28;20081;-52
2021/12/28 00:07:26;;;;;;;56.50;33.73;;;5.30;99.90;;;;;;5090009;28;20309;-53
2021/12/28 00:09:52;;;;;;;62.70;35.95;;;5.30;99.90;;;;;;5077454;28;20531;-55
2021/12/28 00:12:18;;;;;;;57.60;31.97;;;5.40;99.90;;;;;;5072379;28;20041;-53
2021/12/28 00:15:01;;;;;;;55.70;32.47;;;5.30;99.90;;;;;;5072247;28;20028;-54
2021/12/28 00:20:11;;;;;;;56.10;32.97;;;5.30;99.90;;;;;;5071654;28;20049;-52
2021/12/28 00:22:36;;;;;;;56.50;34.00;;;5.30;99.90;;;;;;5071960;28;20077;-55
2021/12/28 00:25:04;;;;;;;69.17;36.60;;;5.30;99.90;;;;;;5072013;28;20036;-56
2021/12/28 00:27:29;;;;;;;70.07;36.50;;;5.30;99.90;;;;;;5069884;28;20044;-55
2021/12/28 00:29:55;;;;;;;58.50;35.57;;;5.30;99.90;;;;;;5071931;28;20441;-52
2021/12/28 00:32:21;;;;;;;75.68;40.28;;;5.30;99.90;;;;;;5071719;28;20043;-53
2021/12/28 00:34:47;;;;;;;81.68;43.28;;;5.30;99.90;;;;;;5070021;28;20149;-54
2021/12/28 00:37:13;;;;;;;87.95;44.25;;;5.40;99.90;;;;;;5071544;28;20039;-55
2021/12/28 00:39:38;;;;;;;85.93;43.63;;;5.50;99.90;;;;;;5071816;28;20752;-51
2021/12/28 00:42:05;;;;;;;75.63;41.03;;;5.50;99.90;;;;;;5071744;28;20028;-54
2021/12/28 00:44:30;;;;;;;86.60;45.15;;;5.60;99.90;;;;;;5071270;28;20048;-52
2021/12/28 00:46:56;;;;;;;84.43;44.23;;;5.70;99.90;;;;;;5071006;28;20405;-56
2021/12/28 00:49:21;;;;;;;79.27;44.33;;;5.70;99.90;;;;;;5071105;28;20099;-54
2021/12/28 00:51:47;;;;;;;78.23;43.27;;;5.80;99.90;;;;;;5071513;28;20041;-54
2021/12/28 00:54:13;;;;;;;87.35;47.40;;;5.90;99.90;;;;;;5071005;28;20091;-54
2021/12/28 00:56:39;;;;;;;75.47;42.77;;;5.90;99.90;;;;;;5071049;28;20040;-55
2021/12/28 00:59:04;;;;;;;80.90;41.23;;;5.90;99.90;;;;;;5071000;28;20040;-53
2021/12/28 01:01:30;;;;;;;75.67;42.77;;;5.90;99.90;;;;;;5071716;28;20278;-55
2021/12/28 01:03:55;;;;;;;85.57;44.37;;;5.90;99.90;;;;;;5071007;28;20064;-56
2021/12/28 01:06:21;;;;;;;80.73;44.50;;;5.90;99.90;;;;;;5070702;28;20085;-56
2021/12/28 01:08:47;;;;;;;79.50;43.70;;;5.90;99.90;;;;;;5071188;28;20413;-53
2021/12/28 01:11:13;;;;;;;84.03;45.30;;;5.90;99.90;;;;;;5087084;28;20036;-56
2021/12/28 01:13:38;;;;;;;87.78;46.75;;;5.90;99.90;;;;;;5070971;28;20098;-55
2021/12/28 01:16:04;;;;;;;96.13;47.83;;;5.90;99.90;;;;;;5069923;28;20041;-57
2021/12/28 01:18:30;;;;;;;102.13;51.13;;;6.00;99.90;;;;;;5069334;28;20040;-56
2021/12/28 01:20:56;;;;;;;98.50;50.80;;;6.00;99.90;;;;;;5070667;28;20167;-56
2021/12/28 01:23:21;;;;;;;105.47;51.80;;;6.10;99.90;;;;;;5070876;28;20105;-56
2021/12/28 01:25:47;;;;;;;95.83;48.43;;;6.10;99.90;;;;;;5070472;28;20473;-56
2021/12/28 01:28:13;;;;;;;95.85;47.30;;;6.00;99.90;;;;;;5070865;28;20267;-56
2021/12/28 01:30:40;;;;;;;100.38;47.63;;;6.00;99.90;;;;;;5070744;28;20051;-54
2021/12/28 01:33:06;;;;;;;;;;;5.90;99.90;;;;;;5070915;28;20040;-57
2021/12/28 01:35:32;;;;;;;111.43;49.03;;;5.80;99.90;;;;;;5071099;28;19917;-56
2021/12/28 01:37:59;;;;;;;103.93;50.50;;;5.80;99.90;;;;;;5067938;28;20127;-57
2021/12/28 01:40:31;;;;;;;104.47;48.70;;;5.70;99.90;;;;;;5070692;28;20037;-55
2021/12/28 01:43:01;;;;;;;126.53;54.42;;;5.70;99.90;;;;;;5070467;28;20029;-57
2021/12/28 01:45:32;;;;;;;137.73;55.10;;;5.70;99.90;;;;;;5070665;28;20032;-55
2021/12/28 01:47:57;;;;;;;132.60;54.58;;;5.60;99.90;;;;;;5086677;28;20050;-57
2021/12/28 01:50:23;;;;;;;139.57;55.13;;;5.60;99.90;;;;;;5082101;28;20119;-55
2021/12/28 01:52:49;;;;;;;147.13;57.95;;;5.60;99.90;;;;;;5070225;28;20067;-57
2021/12/28 01:55:14;;;;;;;116.83;50.43;;;5.60;99.90;;;;;;5074055;28;20490;-57
2021/12/28 01:57:41;;;;;;;125.57;52.77;;;5.60;99.90;;;;;;5081077;28;20505;-56
2021/12/28 02:00:07;;;;;;;128.80;52.85;;;5.60;99.90;;;;;;5084230;28;20437;-55
2021/12/28 02:02:33;;;;;;;124.70;54.83;;;5.60;99.90;;;;;;5080656;28;20040;-56
2021/12/28 02:04:58;;;;;;;116.23;50.50;;;5.60;99.90;;;;;;5061363;28;20051;-55
2021/12/28 02:07:24;;;;;;;137.53;54.00;;;5.60;99.90;;;;;;5069965;28;20182;-56
2021/12/28 02:09:49;;;;;;;177.43;63.87;;;5.60;99.90;;;;;;5071809;28;20044;-55
2021/12/28 02:12:15;;;;;;;175.63;63.53;;;5.60;99.90;;;;;;5074397;28;20809;-52
2021/12/28 02:14:44;;;;;;;185.37;63.70;;;5.60;99.90;;;;;;5088096;28;20028;-55
2021/12/28 02:17:10;;;;;;;157.35;61.35;;;5.60;99.90;;;;;;5071294;28;20169;-53
2021/12/28 02:19:36;;;;;;;149.23;58.92;;;5.60;99.90;;;;;;5070025;28;20434;-54
2021/12/28 02:22:02;;;;;;;203.10;68.37;;;5.60;99.90;;;;;;5087711;28;20121;-57
2021/12/28 02:24:27;;;;;;;167.50;62.20;;;5.70;99.90;;;;;;5075974;28;20279;-55
2021/12/28 02:26:53;;;;;;;192.03;65.77;;;5.70;99.90;;;;;;5070597;28;20056;-55
2021/12/28 02:29:19;;;;;;;187.87;69.70;;;5.80;99.90;;;;;;5081168;28;20471;-57
2021/12/28 02:31:46;;;;;;;182.30;64.40;;;5.80;99.90;;;;;;5074979;28;20051;-56
2021/12/28 02:34:12;;;;;;;168.45;62.90;;;5.80;99.90;;;;;;5072624;28;20489;-54
2021/12/28 02:36:38;;;;;;;173.23;64.50;;;5.90;99.90;;;;;;5074442;28;20048;-55
2021/12/28 02:39:03;;;;;;;176.33;65.60;;;5.90;99.90;;;;;;5072674;28;20036;-56
2021/12/28 02:41:29;;;;;;;210.67;70.63;;;5.90;99.90;;;;;;5081344;28;20079;-54
2021/12/28 02:44:00;;;;;;;224.20;71.68;;;5.90;99.90;;;;;;5077576;28;20033;-52
2021/12/28 02:46:26;;;;;;;201.23;67.13;;;5.80;99.90;;;;;;5076446;28;20029;-56
2021/12/28 02:48:52;;;;;;;178.15;66.22;;;5.80;99.90;;;;;;5074220;28;20051;-54
2021/12/28 02:51:18;;;;;;;229.95;71.03;;;5.80;99.90;;;;;;5082182;28;20040;-56
2021/12/28 02:53:45;;;;;;;188.32;63.17;;;5.70;99.90;;;;;;5075791;28;20085;-57
2021/12/28 02:56:13;;;;;;;176.52;60.60;;;5.70;99.90;;;;;;5090873;28;20565;-54
2021/12/28 02:58:44;;;;;;;161.88;59.10;;;5.70;99.90;;;;;;5091641;28;20089;-55
2021/12/28 03:01:25;;;;;;;287.33;68.93;;;5.70;99.90;;;;;;5079560;28;20044;-55
2021/12/28 03:03:58;;;;;;;358.80;70.28;;;5.70;99.90;;;;;;5072104;28;20048;-57
2021/12/28 03:06:24;;;;;;;582.13;89.30;;;5.60;99.90;;;;;;5074124;28;20131;-53
2021/12/28 03:08:53;;;;;;;401.60;75.55;;;5.50;99.90;;;;;;5073385;28;20127;-56
2021/12/28 03:11:20;;;;;;;576.88;91.15;;;5.40;99.90;;;;;;5084982;28;20054;-56
2021/12/28 03:13:49;;;;;;;1031.05;131.82;;;5.30;99.90;;;;;;5073162;28;20134;-56
2021/12/28 03:16:17;;;;;;;1260.97;145.18;;;5.30;99.90;;;;;;5072896;28;20107;-57
2021/12/28 03:18:43;;;;;;;1245.20;139.00;;;5.30;99.90;;;;;;5073152;28;20032;-54
2021/12/28 03:21:10;;;;;;;988.55;127.88;;;5.30;99.90;;;;;;5072214;28;20504;-57
2021/12/28 03:23:37;;;;;;;1254.10;145.15;;;5.30;99.90;;;;;;5071912;28;20047;-54
2021/12/28 03:26:04;;;;;;;1250.18;145.55;;;5.40;99.90;;;;;;5075700;28;20165;-55
2021/12/28 03:28:32;;;;;;;1220.07;145.75;;;5.40;99.90;;;;;;5078163;28;20497;-56
2021/12/28 03:31:03;;;;;;;1131.05;136.68;;;5.40;99.90;;;;;;5059245;28;20119;-57
2021/12/28 03:33:32;;;;;;;1112.55;136.18;;;5.40;99.90;;;;;;5071166;28;20044;-56
2021/12/28 03:35:58;;;;;;;1272.68;146.55;;;5.40;99.90;;;;;;5070072;28;20055;-56
2021/12/28 03:38:24;;;;;;;1181.28;144.55;;;5.40;99.90;;;;;;5071498;28;20033;-55
2021/12/28 03:40:50;;;;;;;1202.40;144.45;;;5.40;99.90;;;;;;5071329;28;20036;-57
2021/12/28 03:43:17;;;;;;;1186.75;142.93;;;5.40;99.90;;;;;;5072079;28;20293;-55
2021/12/28 03:45:43;;;;;;;1167.47;142.57;;;5.40;99.90;;;;;;5082603;28;20040;-55
2021/12/28 03:48:09;;;;;;;1201.78;148.13;;;5.40;99.90;;;;;;5073925;28;20047;-56
2021/12/28 03:50:36;;;;;;;1122.07;139.97;;;5.40;99.90;;;;;;5072467;28;20040;-56
2021/12/28 03:53:02;;;;;;;1129.05;139.75;;;5.40;99.90;;;;;;5086798;28;20497;-56
2021/12/28 03:55:28;;;;;;;1053.28;135.93;;;5.40;99.90;;;;;;5088940;28;20105;-56
2021/12/28 03:57:55;;;;;;;1099.63;141.40;;;5.40;99.90;;;;;;5077338;28;20032;-53
2021/12/28 04:00:22;;;;;;;1080.60;138.38;;;5.40;99.90;;;;;;5071287;28;20036;-54
2021/12/28 04:02:48;;;;;;;964.92;133.82;;;5.50;99.90;;;;;;5075839;28;20036;-57
2021/12/28 04:05:16;;;;;;;822.50;120.83;;;5.50;99.90;;;;;;5075115;28;20120;-55
2021/12/28 04:07:43;;;;;;;910.10;128.93;;;5.50;99.90;;;;;;5074238;28;20052;-56
2021/12/28 04:10:11;;;;;;;957.88;136.77;;;5.50;99.90;;;;;;5073638;28;20049;-56
2021/12/28 04:12:37;;;;;;;713.30;116.07;;;5.50;99.90;;;;;;5088555;28;20039;-56
2021/12/28 04:15:04;;;;;;;890.35;122.35;;;5.50;99.90;;;;;;5090094;28;20447;-52
2021/12/28 04:17:31;;;;;;;613.58;109.68;;;5.50;99.90;;;;;;5083127;28;20058;-52
2021/12/28 04:19:57;;;;;;;652.33;112.80;;;5.50;99.90;;;;;;5048753;28;1067903;-54
2021/12/28 04:22:23;;;;;;;647.22;110.10;;;5.50;99.90;;;;;;5085235;28;20053;-53
2021/12/28 04:24:49;;;;;;;630.83;106.22;;;5.60;99.90;;;;;;5074746;28;20115;-53
2021/12/28 04:27:15;;;;;;;662.70;109.18;;;5.60;99.90;;;;;;5087958;28;20074;-57
2021/12/28 04:29:40;;;;;;;652.85;107.20;;;5.60;99.90;;;;;;5071964;28;20032;-52
2021/12/28 04:32:07;;;;;;;905.42;127.70;;;5.50;99.90;;;;;;5075508;28;20040;-52
2021/12/28 04:34:32;;;;;;;641.60;109.22;;;5.50;99.90;;;;;;5086504;28;20036;-52
2021/12/28 04:36:58;;;;;;;869.92;128.10;;;5.50;99.90;;;;;;5081266;28;20113;-54
2021/12/28 04:39:24;;;;;;;460.80;88.80;;;5.40;99.90;;;;;;5074038;28;20033;-54
2021/12/28 04:41:49;;;;;;;521.00;95.33;;;5.40;99.90;;;;;;5087688;28;20503;-54
2021/12/28 04:44:22;;;;;;;292.75;73.28;;;5.40;99.90;;;;;;5071138;28;20041;-56
2021/12/28 04:46:48;;;;;;;551.80;97.75;;;5.30;99.90;;;;;;5087671;28;20059;-56
2021/12/28 04:49:15;;;;;;;408.03;82.70;;;5.30;99.90;;;;;;5088005;28;20032;-56
2021/12/28 04:51:41;;;;;;;476.08;91.05;;;5.30;99.90;;;;;;5071311;28;20037;-55
2021/12/28 04:54:11;;;;;;;576.38;98.07;;;5.20;99.90;;;;;;5089733;28;20046;-53
2021/12/28 04:56:37;;;;;;;434.02;84.68;;;5.20;99.90;;;;;;5075341;28;20036;-53
2021/12/28 04:59:03;;;;;;;311.17;71.68;;;5.20;99.90;;;;;;5071183;28;20039;-56
2021/12/28 05:01:28;;;;;;;245.70;67.50;;;5.10;99.90;;;;;;5085852;28;20039;-55
2021/12/28 05:03:54;;;;;;;251.00;64.83;;;5.10;99.90;;;;;;5090053;28;20039;-57
2021/12/28 05:06:20;;;;;;;264.97;65.20;;;5.10;99.90;;;;;;5082925;28;20481;-55
2021/12/28 05:08:45;;;;;;;264.07;65.97;;;5.10;99.90;;;;;;5072422;28;20041;-54
2021/12/28 05:11:11;;;;;;;208.73;58.40;;;5.10;99.90;;;;;;5082975;28;20291;-55
2021/12/28 05:13:37;;;;;;;207.13;57.70;;;5.10;99.90;;;;;;5070992;28;20032;-55
2021/12/28 05:16:02;;;;;;;192.07;56.07;;;5.00;99.90;;;;;;5070454;28;20033;-57
2021/12/28 05:18:28;;;;;;;174.43;51.75;;;5.00;99.90;;;;;;5070658;28;20101;-55
2021/12/28 05:20:54;;;;;;;157.30;49.30;;;5.00;99.90;;;;;;5070518;28;20056;-57
2021/12/28 05:23:19;;;;;;;145.20;50.10;;;5.10;99.90;;;;;;5070616;28;20120;-57
2021/12/28 05:25:45;;;;;;;154.60;47.93;;;5.00;99.90;;;;;;5069159;28;20032;-56
2021/12/28 05:28:10;;;;;;;152.57;48.83;;;5.00;99.90;;;;;;5070295;28;20459;-56
2021/12/28 05:30:36;;;;;;;153.40;50.40;;;5.00;99.90;;;;;;5070723;28;20045;-54
2021/12/28 05:33:03;;;;;;;132.07;44.50;;;5.00;99.90;;;;;;5070316;28;20032;-52
2021/12/28 05:35:29;;;;;;;131.15;46.88;;;5.00;99.90;;;;;;5052426;28;20040;-55
2021/12/28 05:37:55;;;;;;;126.17;43.23;;;5.00;99.90;;;;;;5070255;28;20035;-54
2021/12/28 05:40:20;;;;;;;126.63;43.30;;;4.90;99.90;;;;;;5070944;28;20032;-56
2021/12/28 05:42:46;;;;;;;114.03;41.43;;;4.90;99.90;;;;;;5070097;28;20124;-56
2021/12/28 05:45:12;;;;;;;123.20;43.77;;;4.90;99.90;;;;;;5070595;28;20036;-55
2021/12/28 05:47:38;;;;;;;115.38;42.15;;;5.00;99.90;;;;;;5073875;28;20048;-56
2021/12/28 05:50:05;;;;;;;126.15;44.35;;;5.00;99.90;;;;;;5070969;28;20040;-55
2021/12/28 05:52:31;;;;;;;117.32;42.03;;;5.00;99.90;;;;;;5069869;28;20036;-54
2021/12/28 05:54:56;;;;;;;103.23;38.27;;;4.90;99.90;;;;;;5083695;28;20036;-56
2021/12/28 05:57:22;;;;;;;97.47;38.33;;;4.90;99.90;;;;;;5084508;28;20539;-56
2021/12/28 05:59:48;;;;;;;96.20;38.17;;;4.90;99.90;;;;;;5072124;28;20039;-56
2021/12/28 06:02:13;;;;;;;89.90;34.07;;;4.80;99.90;;;;;;5078493;28;20047;-56
2021/12/28 06:04:39;;;;;;;82.83;32.17;;;4.70;99.90;;;;;;5090117;28;20051;-55
2021/12/28 06:07:05;;;;;;;65.00;29.38;;;4.70;99.90;;;;;;5088585;28;20040;-56
2021/12/28 06:09:31;;;;;;;76.90;30.60;;;4.60;99.90;;;;;;5080077;28;20043;-51
2021/12/28 06:11:56;;;;;;;65.53;27.70;;;4.60;99.90;;;;;;5085739;28;20485;-56
2021/12/28 06:14:22;;;;;;;72.77;30.23;;;4.50;99.90;;;;;;5072362;28;20086;-54
2021/12/28 06:16:47;;;;;;;64.77;28.77;;;4.50;99.90;;;;;;5072885;28;20126;-56
2021/12/28 06:19:13;;;;;;;75.15;30.45;;;4.40;99.90;;;;;;5070190;28;20037;-52
2021/12/28 06:21:39;;;;;;;78.38;31.25;;;4.50;99.90;;;;;;5071854;28;20468;-56
2021/12/28 06:24:06;;;;;;;76.57;29.73;;;4.50;99.90;;;;;;5070082;28;20051;-54
2021/12/28 06:26:33;;;;;;;77.95;31.80;;;4.50;99.90;;;;;;5068493;28;20032;-55
2021/12/28 06:29:00;;;;;;;63.38;29.15;;;4.50;99.90;;;;;;5070099;28;20475;-53
2021/12/28 06:31:28;;;;;;;77.35;30.58;;;4.60;99.90;;;;;;5071720;28;20032;-53
2021/12/28 06:33:55;;;;;;;72.03;30.30;;;4.60;99.90;;;;;;5089398;28;20090;-55
2021/12/28 06:36:22;;;;;;;67.57;29.40;;;4.60;99.90;;;;;;5085133;28;20112;-54
2021/12/28 06:38:48;;;;;;;58.00;28.63;;;4.60;99.90;;;;;;5070824;28;20067;-52
2021/12/28 06:41:13;;;;;;;66.60;27.02;;;4.60;99.90;;;;;;5078066;28;20478;-52
2021/12/28 06:43:39;;;;;;;66.90;28.00;;;4.60;99.90;;;;;;5088184;28;20063;-53
2021/12/28 06:46:05;;;;;;;62.63;26.77;;;4.60;99.90;;;;;;5087985;28;20040;-56
2021/12/28 06:48:30;;;;;;;68.50;28.60;;;4.60;99.90;;;;;;5088996;28;20092;-55
2021/12/28 06:50:56;;;;;;;59.60;26.52;;;4.70;99.90;;;;;;5089936;28;20110;-54
2021/12/28 06:53:22;;;;;;;58.40;28.17;;;4.70;99.90;;;;;;5072335;28;20033;-55
2021/12/28 06:55:47;;;;;;;62.67;26.57;;;4.70;99.90;;;;;;5069453;28;20067;-55
2021/12/28 06:58:13;;;;;;;63.63;27.87;;;4.70;99.90;;;;;;5072552;28;20040;-53
2021/12/28 07:00:39;;;;;;;68.70;28.53;;;4.80;99.90;;;;;;5088026;28;20065;-54
2021/12/28 07:03:05;;;;;;;64.85;27.42;;;4.90;99.90;;;;;;5075265;28;20045;-55
2021/12/28 07:05:32;;;;;;;60.75;26.90;;;4.90;99.90;;;;;;5070932;28;20040;-57
2021/12/28 07:07:57;;;;;;;51.63;24.67;;;4.90;99.90;;;;;;5072954;28;20109;-55
2021/12/28 07:10:23;;;;;;;61.73;26.07;;;4.90;99.90;;;;;;5076360;28;20481;-53
2021/12/28 07:12:53;;;;;;;62.47;26.37;;;4.90;99.90;;;;;;5075469;28;20049;-55
2021/12/28 07:15:20;;;;;;;47.95;23.90;;;4.90;99.90;;;;;;5076807;28;20048;-56
2021/12/28 07:17:45;;;;;;;;;;;4.90;99.90;;;;;;5080708;28;20659;-55
2021/12/28 07:20:12;;;;;;;53.15;22.38;;;4.90;99.90;;;;;;5077645;28;19975;-55
2021/12/28 07:22:38;;;;;;;41.70;21.90;;;5.00;99.90;;;;;;5073289;28;20576;-55
2021/12/28 07:25:06;;;;;;;49.47;23.67;;;5.00;99.90;;;;;;5071901;28;20054;-56
2021/12/28 07:27:32;;;;;;;47.00;22.88;;;4.90;99.90;;;;;;5071634;28;20044;-55
2021/12/28 07:29:58;;;;;;;46.10;21.47;;;4.90;99.90;;;;;;5072433;28;20043;-56
2021/12/28 07:32:23;;;;;;;42.53;21.60;;;4.90;99.90;;;;;;5073202;28;20072;-54
2021/12/28 07:34:49;;;;;;;52.00;22.23;;;4.90;99.90;;;;;;5076342;28;20490;-55
2021/12/28 07:37:15;;;;;;;48.83;22.13;;;4.90;99.90;;;;;;5072511;28;20036;-55
2021/12/28 07:39:40;;;;;;;45.13;19.83;;;4.90;99.90;;;;;;5072884;28;20263;-53
2021/12/28 07:42:06;;;;;;;48.73;21.50;;;4.80;99.90;;;;;;5072464;28;20040;-54
2021/12/28 07:44:32;;;;;;;50.33;21.33;;;4.90;99.90;;;;;;5082209;28;20123;-55
2021/12/28 07:46:58;;;;;;;45.15;19.70;;;4.80;99.90;;;;;;5074851;28;20512;-53
2021/12/28 07:49:24;;;;;;;33.10;18.03;;;4.90;99.90;;;;;;5084096;28;20047;-58
2021/12/28 07:51:50;;;;;;;37.27;18.07;;;4.80;99.90;;;;;;5079310;28;20294;-55
2021/12/28 07:54:15;;;;;;;39.28;19.10;;;4.90;99.90;;;;;;5088816;28;20044;-56
2021/12/28 07:56:41;;;;;;;41.63;19.77;;;4.90;99.90;;;;;;5078994;28;20119;-56
2021/12/28 07:59:08;;;;;;;43.20;19.92;;;4.90;99.90;;;;;;5081589;28;20044;-57
2021/12/28 08:01:34;;;;;;;44.08;20.13;;;4.90;99.90;;;;;;5074191;28;20028;-56
2021/12/28 08:04:00;;;;;;;39.75;19.92;;;4.90;99.90;;;;;;5071154;28;20158;-54
2021/12/28 08:06:26;;;;;;;52.80;21.85;;;4.90;99.90;;;;;;5070803;28;20063;-54
2021/12/28 08:08:52;;;;;;;42.73;20.20;;;5.00;99.90;;;;;;5072073;28;20049;-56
2021/12/28 08:11:17;;;;;;;49.28;20.80;;;5.10;99.90;;;;;;5072724;28;20041;-57
2021/12/28 08:13:43;;;;;;;41.10;19.07;;;5.10;99.90;;;;;;5071595;28;20063;-56
2021/12/28 08:16:09;;;;;;;41.60;19.03;;;5.10;99.90;;;;;;5071914;28;20036;-53
2021/12/28 08:18:34;;;;;;;47.63;19.37;;;5.20;99.90;;;;;;5072184;28;20037;-56
2021/12/28 08:21:00;;;;;;;31.20;16.30;;;5.20;99.90;;;;;;5072005;28;20050;-56
2021/12/28 08:23:25;;;;;;;40.47;18.27;;;5.30;99.90;;;;;;5071725;28;20032;-58
2021/12/28 08:25:51;;;;;;;46.33;18.37;;;5.30;99.90;;;;;;5070702;28;20192;-56
2021/12/28 08:28:17;;;;;;;39.90;17.45;;;5.40;99.90;;;;;;5070193;28;20044;-57
2021/12/28 08:30:43;;;;;;;35.90;18.13;;;5.50;99.90;;;;;;5071925;28;20401;-53
2021/12/28 08:33:09;;;;;;;31.08;16.52;;;5.60;99.90;;;;;;5070256;28;20041;-54
2021/12/28 08:35:39;;;;;;;38.28;15.05;;;5.60;99.90;;;;;;5070762;28;20036;-53
2021/12/28 08:38:09;;;;;;;33.92;15.52;;;5.60;99.90;;;;;;5067986;28;20116;-53
2021/12/28 08:40:35;;;;;;;35.42;16.73;;;5.60;99.90;;;;;;5071105;28;20489;-55
2021/12/28 08:43:01;;;;;;;28.17;14.90;;;5.70;99.90;;;;;;5071803;28;20087;-53
2021/12/28 08:45:27;;;;;;;29.13;14.50;;;5.70;99.90;;;;;;5071889;28;20072;-55
2021/12/28 08:47:52;;;;;;;34.17;15.52;;;5.80;99.90;;;;;;5071267;28;20048;-56
2021/12/28 08:50:20;;;;;;;30.90;14.27;;;5.80;99.90;;;;;;5066344;28;20042;-56
2021/12/28 08:52:45;;;;;;;36.92;15.60;;;5.80;99.90;;;;;;5066021;28;20115;-53
2021/12/28 08:55:12;;;;;;;26.97;13.63;;;5.90;99.90;;;;;;5070784;28;20608;-55
2021/12/28 08:57:37;;;;;;;30.95;13.50;;;5.90;99.90;;;;;;5068868;28;20052;-56
2021/12/28 09:00:07;;;;;;;35.13;15.02;;;5.90;99.90;;;;;;5069121;28;20028;-54
2021/12/28 09:02:32;;;;;;;32.22;13.98;;;6.00;99.90;;;;;;5078561;28;20209;-55
2021/12/28 09:04:58;;;;;;;30.30;14.60;;;6.10;99.90;;;;;;5083396;28;20139;-53
2021/12/28 09:07:24;;;;;;;22.17;11.23;;;6.20;99.90;;;;;;5076203;28;20037;-56
2021/12/28 09:09:49;;;;;;;25.73;11.57;;;6.40;99.90;;;;;;5074625;28;20113;-56
2021/12/28 09:12:15;;;;;;;26.63;11.03;;;6.50;99.90;;;;;;5066465;28;20082;-55
2021/12/28 09:22:10;;;;;;;29.83;11.07;;;6.40;99.90;;;;;;5064178;28;20048;-57
2021/12/28 09:24:37;;;;;;;24.65;10.73;;;6.40;99.90;;;;;;5064971;28;20040;-56
2021/12/28 09:27:04;;;;;;;28.20;11.30;;;6.40;99.90;;;;;;5060521;28;20044;-56
2021/12/28 09:29:31;;;;;;;25.38;12.05;;;6.40;99.90;;;;;;5036681;28;20281;-56
2021/12/28 09:31:58;;;;;;;23.80;10.55;;;6.40;99.90;;;;;;5054448;28;20067;-56
2021/12/28 09:34:25;;;;;;;33.40;12.55;;;6.40;99.90;;;;;;5053192;28;20040;-54
2021/12/28 09:36:51;;;;;;;27.98;11.15;;;6.40;99.90;;;;;;5035225;28;20108;-54
2021/12/28 09:39:22;;;;;;;33.90;10.65;;;6.50;99.90;;;;;;5059145;28;20124;-52
2021/12/28 09:41:53;;;;;;;35.03;11.00;;;6.50;99.90;;;;;;5056587;28;20068;-55
2021/12/28 09:44:20;;;;;;;29.92;10.18;;;6.50;99.90;;;;;;5051641;28;20047;-55
2021/12/28 09:46:46;;;;;;;29.20;10.77;;;6.50;99.90;;;;;;5052266;28;20036;-56
2021/12/28 09:49:11;;;;;;;32.67;10.95;;;6.50;99.90;;;;;;5055685;28;20040;-57
2021/12/28 09:51:37;;;;;;;31.97;12.43;;;6.50;99.90;;;;;;5063014;28;20152;-55
2021/12/28 09:54:03;;;;;;;23.47;10.80;;;6.60;99.90;;;;;;5062445;28;20044;-54
2021/12/28 09:56:29;;;;;;;17.25;9.35;;;6.60;99.90;;;;;;5049848;28;20094;-56
2021/12/28 09:58:54;;;;;;;24.13;11.03;;;6.60;99.90;;;;;;5058600;28;20545;-57
2021/12/28 10:01:20;;;;;;;35.20;10.30;;;6.70;99.90;;;;;;5056979;28;20383;-56
2021/12/28 10:03:47;;;;;;;29.77;12.50;;;6.70;99.90;;;;;;5059506;28;20399;-56
2021/12/28 10:06:18;;;;;;;29.75;14.50;;;6.70;99.90;;;;;;5059817;28;20047;-54
2021/12/28 10:08:44;;;;;;;37.72;12.65;;;6.80;99.90;;;;;;5038906;28;20051;-54
2021/12/28 10:11:10;;;;;;;21.33;12.23;;;6.80;99.90;;;;;;5067944;28;20033;-54
2021/12/28 10:13:35;;;;;;;36.88;12.68;;;6.80;99.90;;;;;;5063631;28;20040;-56
2021/12/28 10:16:02;;;;;;;32.43;11.23;;;6.90;99.90;;;;;;5054214;28;20032;-56
2021/12/28 10:18:28;;;;;;;30.50;11.13;;;6.90;99.90;;;;;;5061843;28;20428;-54
2021/12/28 10:20:56;;;;;;;31.63;12.50;;;6.90;99.90;;;;;;5057823;28;20128;-57
2021/12/28 10:23:25;;;;;;;40.33;12.95;;;7.00;99.90;;;;;;5054202;28;20048;-55
2021/12/28 10:26:00;;;;;;;34.72;13.68;;;7.00;99.90;;;;;;5054447;28;20037;-56
2021/12/28 10:28:36;;;;;;;26.30;11.57;;;7.10;99.90;;;;;;5054065;28;20036;-57
2021/12/28 10:31:08;;;;;;;27.13;11.85;;;7.20;99.90;;;;;;5058903;28;20059;-57
2021/12/28 10:33:37;;;;;;;22.23;10.38;;;7.20;99.90;;;;;;5061805;28;20045;-56
2021/12/28 10:36:08;;;;;;;20.38;8.90;;;7.20;99.90;;;;;;5059576;28;20052;-56
2021/12/28 10:38:37;;;;;;;25.33;9.10;;;7.20;99.90;;;;;;5037700;28;20052;-56
2021/12/28 10:41:10;;;;;;;19.55;9.38;;;7.20;99.90;;;;;;5041479;28;20079;-55
2021/12/28 10:43:38;;;;;;;30.48;10.30;;;7.10;99.90;;;;;;5067865;28;20409;-56
2021/12/28 10:46:10;;;;;;;24.73;9.07;;;7.20;99.90;;;;;;5070805;28;20044;-56
2021/12/28 10:48:45;;;;;;;24.92;8.90;;;7.20;99.90;;;;;;5071017;28;20029;-56
2021/12/28 10:51:28;;;;;;;21.17;9.57;;;7.20;99.90;;;;;;5070318;28;20047;-55
2021/12/28 10:56:25;;;;;;;21.45;9.55;;;7.20;99.90;;;;;;5066767;28;20080;-53
2021/12/28 10:58:52;;;;;;;;;;;7.30;99.90;;;;;;5056426;28;20046;-54
2021/12/28 11:01:21;;;;;;;26.88;9.90;;;7.30;99.90;;;;;;5070056;28;20278;-56
2021/12/28 11:03:53;;;;;;;32.45;11.15;;;7.30;99.90;;;;;;5073044;28;20040;-56
2021/12/28 11:06:20;;;;;;;23.40;10.20;;;7.30;99.90;;;;;;5066992;28;20083;-55
2021/12/28 11:08:48;;;;;;;26.10;10.75;;;7.30;99.90;;;;;;5068396;28;20040;-57
2021/12/28 11:11:17;;;;;;;31.05;11.05;;;7.30;99.90;;;;;;5072060;28;20044;-56
2021/12/28 11:13:44;;;;;;;32.40;12.65;;;7.30;99.90;;;;;;5071851;28;20087;-57
2021/12/28 11:16:12;;;;;;;26.00;11.77;;;7.30;99.90;;;;;;5071839;28;20039;-55
2021/12/28 11:18:41;;;;;;;30.95;12.52;;;7.30;99.90;;;;;;5068476;28;20048;-56
2021/12/28 11:21:16;;;;;;;40.40;14.38;;;7.30;99.90;;;;;;5068492;28;20032;-54
2021/12/28 11:23:44;;;;;;;32.83;13.18;;;7.30;99.90;;;;;;5069332;28;20454;-57
2021/12/28 11:26:16;;;;;;;33.35;14.52;;;7.30;99.90;;;;;;5061665;28;20074;-55
2021/12/28 11:28:49;;;;;;;31.45;14.32;;;7.30;99.90;;;;;;5057122;28;20529;-56
2021/12/28 11:31:18;;;;;;;39.72;15.77;;;7.30;99.90;;;;;;5061722;28;20425;-56
2021/12/28 11:33:55;;;;;;;35.75;16.35;;;7.30;99.90;;;;;;5052762;28;20063;-55
2021/12/28 11:36:47;;;;;;;29.92;13.60;;;7.40;99.90;;;;;;5056769;28;20048;-52
2021/12/28 11:39:16;;;;;;;40.83;14.88;;;7.30;99.90;;;;;;5051869;28;20045;-52
2021/12/28 11:41:43;;;;;;;27.58;15.27;;;7.40;99.90;;;;;;5060061;28;20120;-55
2021/12/28 11:44:09;;;;;;;41.03;15.75;;;7.40;99.90;;;;;;5060632;28;20170;-53
2021/12/28 11:46:35;;;;;;;33.97;16.92;;;7.40;99.90;;;;;;5035085;28;20041;-54
2021/12/28 11:49:01;;;;;;;34.38;17.42;;;7.50;99.90;;;;;;5060467;28;20521;-53
2021/12/28 11:51:27;;;;;;;31.77;16.40;;;7.50;99.90;;;;;;5058939;28;20033;-54
2021/12/28 11:53:55;;;;;;;34.27;16.17;;;7.50;99.90;;;;;;5056835;28;20033;-55
2021/12/28 11:56:28;;;;;;;29.30;15.50;;;7.50;99.90;;;;;;5055038;28;20040;-55
2021/12/28 11:58:58;;;;;;;38.20;17.25;;;7.50;99.90;;;;;;5038345;28;20114;-54
2021/12/28 12:01:43;;;;;;;31.95;16.70;;;7.50;99.90;;;;;;5059013;28;20037;-55
2021/12/28 12:04:30;;;;;;;35.15;17.35;;;7.50;99.90;;;;;;5060217;28;20040;-55
2021/12/28 12:07:13;;;;;;;34.40;16.88;;;7.50;99.90;;;;;;5050803;28;20036;-55
2021/12/28 12:09:54;;;;;;;26.38;16.17;;;7.50;99.90;;;;;;5064516;28;20036;-54
2021/12/28 12:12:24;;;;;;;31.15;17.20;;;7.50;99.90;;;;;;5033579;28;20037;-52
2021/12/28 12:14:50;;;;;;;30.55;19.75;;;7.50;99.90;;;;;;5062039;28;20037;-56
2021/12/28 12:17:39;;;;;;;37.93;20.43;;;7.50;99.90;;;;;;5053922;28;20136;-55
2021/12/28 12:20:05;;;;;;;36.75;19.08;;;7.60;99.90;;;;;;5038024;28;20045;-54
2021/12/28 12:22:35;;;;;;;43.83;19.30;;;7.60;99.90;;;;;;5042171;28;20115;-56
2021/12/28 12:25:33;;;;;;;40.45;22.10;;;7.60;99.90;;;;;;5038848;28;20295;-54
2021/12/28 12:28:02;;;;;;;45.35;23.48;;;7.60;99.90;;;;;;5010247;28;20098;-56
2021/12/28 12:30:28;;;;;;;39.85;23.90;;;7.60;99.90;;;;;;5060918;28;20053;-56
2021/12/28 12:33:05;;;;;;;44.03;23.75;;;7.60;99.90;;;;;;5051749;28;20037;-54
2021/12/28 12:35:42;;;;;;;44.97;24.45;;;7.60;99.90;;;;;;5056158;28;20047;-56
2021/12/28 12:38:16;;;;;;;43.38;22.35;;;7.60;99.90;;;;;;5052360;28;20059;-57
2021/12/28 12:41:09;;;;;;;41.03;23.38;;;7.60;99.90;;;;;;5058623;28;20206;-56
2021/12/28 12:43:35;;;;;;;40.78;22.83;;;7.60;99.90;;;;;;5038967;28;20036;-56
2021/12/28 12:46:24;;;;;;;37.73;21.80;;;7.60;99.90;;;;;;5055733;28;20148;-53